SHT22A EGJB-EGLL
Flight info
| Callsign | SHT22A |
|---|---|
| Flight time | 0h 34m |
| Altitude | 19000 |
| Route | ORIST1F ORIST L982 ROXOG ROXOG1H |
| Aircraft | A320/M-SDE3FGHIRWY/LB1 |
Departure
| Time | 2026-04-25 18:53 |
|---|---|
| Airport | Guernsey Airport (EGJB) |
Arrival
| Time | 2026-04-25 19:27 |
|---|---|
| Airport | London Heathrow Airport (EGLL) |
| Time | Latitude | Longitude | Altitude | Speed | Heading |
|---|---|---|---|---|---|
| 2026-04-25 18:22 | 49.43257 | -2.59688 | 344 ft | 0 kts | 178° |
| 2026-04-25 18:44 | 49.43266 | -2.59688 | 344 ft | 4 kts | 178° |
| 2026-04-25 18:44 | 49.43293 | -2.59689 | 349 ft | 4 kts | 180° |
| 2026-04-25 18:44 | 49.43320 | -2.59688 | 347 ft | 4 kts | 184° |
| 2026-04-25 18:44 | 49.43347 | -2.59682 | 344 ft | 4 kts | 204° |
| 2026-04-25 18:45 | 49.43362 | -2.59663 | 355 ft | 1 kts | 267° |
| 2026-04-25 18:47 | 49.43362 | -2.59669 | 355 ft | 4 kts | 267° |
| 2026-04-25 18:47 | 49.43350 | -2.59776 | 353 ft | 11 kts | 256° |
| 2026-04-25 18:47 | 49.43345 | -2.59885 | 344 ft | 10 kts | 268° |
| 2026-04-25 18:47 | 49.43342 | -2.59980 | 344 ft | 8 kts | 268° |
| 2026-04-25 18:48 | 49.43340 | -2.60070 | 343 ft | 9 kts | 267° |
| 2026-04-25 18:48 | 49.43336 | -2.60175 | 340 ft | 11 kts | 267° |
| 2026-04-25 18:48 | 49.43332 | -2.60299 | 337 ft | 12 kts | 266° |
| 2026-04-25 18:48 | 49.43329 | -2.60435 | 333 ft | 13 kts | 268° |
| 2026-04-25 18:49 | 49.43325 | -2.60583 | 327 ft | 14 kts | 267° |
| 2026-04-25 18:49 | 49.43340 | -2.60739 | 324 ft | 15 kts | 283° |
| 2026-04-25 18:49 | 49.43355 | -2.60854 | 322 ft | 5 kts | 282° |
| 2026-04-25 18:49 | 49.43356 | -2.60860 | 323 ft | 0 kts | 282° |
| 2026-04-25 18:50 | 49.43366 | -2.60947 | 322 ft | 19 kts | 274° |
| 2026-04-25 18:50 | 49.43361 | -2.61133 | 318 ft | 7 kts | 269° |
| 2026-04-25 18:50 | 49.43359 | -2.61216 | 316 ft | 6 kts | 270° |
| 2026-04-25 18:50 | 49.43360 | -2.61223 | 316 ft | 0 kts | 270° |
| 2026-04-25 18:51 | 49.43360 | -2.61229 | 316 ft | 4 kts | 274° |
| 2026-04-25 18:51 | 49.43403 | -2.61327 | 313 ft | 9 kts | 313° |
| 2026-04-25 18:51 | 49.43457 | -2.61357 | 313 ft | 7 kts | 18° |
| 2026-04-25 18:52 | 49.43465 | -2.61321 | 313 ft | 2 kts | 90° |
| 2026-04-25 18:52 | 49.43465 | -2.61317 | 313 ft | 0 kts | 87° |
| 2026-04-25 18:52 | 49.43475 | -2.61017 | 320 ft | 71 kts | 87° |
| 2026-04-25 18:52 | 49.43507 | -2.59853 | 360 ft | 142 kts | 86° |
| 2026-04-25 18:53 | 49.43553 | -2.58274 | 1032 ft | 152 kts | 87° |
| 2026-04-25 18:53 | 49.43577 | -2.57264 | 1555 ft | 154 kts | 88° |
| 2026-04-25 18:53 | 49.43607 | -2.55612 | 2434 ft | 155 kts | 88° |
| 2026-04-25 18:53 | 49.43647 | -2.53967 | 3196 ft | 152 kts | 86° |
| 2026-04-25 18:54 | 49.43752 | -2.50864 | 4195 ft | 148 kts | 78° |
| 2026-04-25 18:54 | 49.44247 | -2.49345 | 4205 ft | 177 kts | 43° |
| 2026-04-25 18:54 | 49.45426 | -2.48417 | 4241 ft | 207 kts | 12° |
| 2026-04-25 18:55 | 49.46891 | -2.47892 | 4683 ft | 221 kts | 13° |
| 2026-04-25 18:55 | 49.48400 | -2.47330 | 5360 ft | 230 kts | 13° |
| 2026-04-25 18:55 | 49.50030 | -2.46712 | 5723 ft | 254 kts | 13° |
| 2026-04-25 18:55 | 49.51811 | -2.46032 | 6274 ft | 270 kts | 14° |
| 2026-04-25 18:56 | 49.53654 | -2.45330 | 7049 ft | 276 kts | 14° |
| 2026-04-25 18:56 | 49.55512 | -2.44619 | 7800 ft | 281 kts | 14° |
| 2026-04-25 18:56 | 49.57416 | -2.43891 | 8216 ft | 285 kts | 14° |
| 2026-04-25 18:56 | 49.59345 | -2.43156 | 9097 ft | 286 kts | 14° |
| 2026-04-25 18:57 | 49.61288 | -2.42415 | 9948 ft | 289 kts | 14° |
| 2026-04-25 18:57 | 49.63257 | -2.41659 | 10709 ft | 293 kts | 13° |
| 2026-04-25 18:57 | 49.65247 | -2.40893 | 11465 ft | 296 kts | 13° |
| 2026-04-25 18:57 | 49.66599 | -2.40372 | 11969 ft | 298 kts | 13° |
| 2026-04-25 18:58 | 49.69266 | -2.39067 | 12973 ft | 304 kts | 25° |
| 2026-04-25 18:58 | 49.72640 | -2.34742 | 13702 ft | 340 kts | 49° |
| 2026-04-25 18:58 | 49.74215 | -2.31857 | 13959 ft | 358 kts | 49° |
| 2026-04-25 18:59 | 49.77478 | -2.25870 | 15106 ft | 368 kts | 49° |
| 2026-04-25 18:59 | 49.80824 | -2.19754 | 16331 ft | 376 kts | 48° |
| 2026-04-25 19:00 | 49.84237 | -2.13526 | 17546 ft | 383 kts | 48° |
| 2026-04-25 19:00 | 49.85966 | -2.10361 | 18147 ft | 387 kts | 48° |
| 2026-04-25 19:01 | 49.89471 | -2.03936 | 19080 ft | 393 kts | 48° |
| 2026-04-25 19:01 | 49.91249 | -2.00669 | 19184 ft | 395 kts | 48° |
| 2026-04-25 19:01 | 49.93025 | -1.97401 | 19204 ft | 401 kts | 48° |
| 2026-04-25 19:01 | 49.94829 | -1.94073 | 19207 ft | 403 kts | 48° |
| 2026-04-25 19:02 | 49.98446 | -1.87431 | 19212 ft | 402 kts | 45° |
| 2026-04-25 19:02 | 50.00512 | -1.84531 | 19213 ft | 400 kts | 34° |
| 2026-04-25 19:02 | 50.02863 | -1.82243 | 19218 ft | 397 kts | 25° |
| 2026-04-25 19:03 | 50.06974 | -1.78935 | 19217 ft | 398 kts | 26° |
| 2026-04-25 19:03 | 50.10195 | -1.76215 | 19217 ft | 398 kts | 27° |
| 2026-04-25 19:03 | 50.12652 | -1.74107 | 19222 ft | 398 kts | 27° |
| 2026-04-25 19:04 | 50.17504 | -1.69956 | 19221 ft | 398 kts | 26° |
| 2026-04-25 19:04 | 50.19932 | -1.67893 | 19223 ft | 398 kts | 26° |
| 2026-04-25 19:05 | 50.24781 | -1.63782 | 19236 ft | 398 kts | 26° |
| 2026-04-25 19:05 | 50.29650 | -1.59663 | 19233 ft | 398 kts | 26° |
| 2026-04-25 19:05 | 50.32086 | -1.57606 | 19236 ft | 398 kts | 26° |
| 2026-04-25 19:06 | 50.34510 | -1.55553 | 19238 ft | 398 kts | 26° |
| 2026-04-25 19:06 | 50.39376 | -1.51392 | 19238 ft | 398 kts | 26° |
| 2026-04-25 19:06 | 50.41807 | -1.49318 | 19238 ft | 398 kts | 26° |
| 2026-04-25 19:07 | 50.46665 | -1.45167 | 19239 ft | 398 kts | 26° |
| 2026-04-25 19:07 | 50.49097 | -1.43081 | 19243 ft | 398 kts | 26° |
| 2026-04-25 19:08 | 50.53953 | -1.38916 | 19243 ft | 398 kts | 26° |
| 2026-04-25 19:08 | 50.56382 | -1.36832 | 19242 ft | 398 kts | 26° |
| 2026-04-25 19:09 | 50.63661 | -1.30568 | 19240 ft | 397 kts | 26° |
| 2026-04-25 19:09 | 50.65299 | -1.29153 | 19242 ft | 397 kts | 26° |
| 2026-04-25 19:09 | 50.70930 | -1.24279 | 19151 ft | 393 kts | 26° |
| 2026-04-25 19:10 | 50.73293 | -1.22223 | 18917 ft | 383 kts | 26° |
| 2026-04-25 19:10 | 50.75600 | -1.20215 | 18616 ft | 375 kts | 26° |
| 2026-04-25 19:10 | 50.77912 | -1.18210 | 18093 ft | 374 kts | 26° |
| 2026-04-25 19:10 | 50.80186 | -1.16237 | 17603 ft | 371 kts | 26° |
| 2026-04-25 19:11 | 50.82435 | -1.14281 | 17122 ft | 368 kts | 26° |
| 2026-04-25 19:11 | 50.84670 | -1.12331 | 16646 ft | 366 kts | 27° |
| 2026-04-25 19:11 | 50.86890 | -1.10395 | 16181 ft | 363 kts | 27° |
| 2026-04-25 19:11 | 50.89097 | -1.08473 | 15706 ft | 362 kts | 27° |
| 2026-04-25 19:12 | 50.91290 | -1.06556 | 15236 ft | 360 kts | 27° |
| 2026-04-25 19:12 | 50.93478 | -1.04638 | 14766 ft | 358 kts | 27° |
| 2026-04-25 19:12 | 50.95648 | -1.02732 | 14299 ft | 356 kts | 27° |
| 2026-04-25 19:12 | 50.97817 | -1.00827 | 13806 ft | 355 kts | 27° |
| 2026-04-25 19:13 | 50.99935 | -0.98837 | 13342 ft | 353 kts | 34° |
| 2026-04-25 19:13 | 51.01740 | -0.96284 | 13169 ft | 345 kts | 46° |
| 2026-04-25 19:13 | 51.03325 | -0.93442 | 13201 ft | 343 kts | 47° |
| 2026-04-25 19:13 | 51.04879 | -0.90573 | 13197 ft | 344 kts | 53° |
| 2026-04-25 19:14 | 51.06097 | -0.87290 | 12937 ft | 345 kts | 60° |
| 2026-04-25 19:14 | 51.06478 | -0.86153 | 12800 ft | 344 kts | 61° |
| 2026-04-25 19:14 | 51.08230 | -0.80855 | 12194 ft | 340 kts | 61° |
| 2026-04-25 19:14 | 51.09323 | -0.77542 | 11818 ft | 337 kts | 61° |
| 2026-04-25 19:15 | 51.10414 | -0.74244 | 11442 ft | 335 kts | 61° |
| 2026-04-25 19:15 | 51.11260 | -0.71687 | 11153 ft | 333 kts | 61° |
| 2026-04-25 19:15 | 51.12324 | -0.68478 | 10793 ft | 332 kts | 61° |
| 2026-04-25 19:15 | 51.13427 | -0.65265 | 10431 ft | 327 kts | 56° |
| 2026-04-25 19:16 | 51.14923 | -0.62663 | 10281 ft | 313 kts | 37° |
| 2026-04-25 19:16 | 51.16647 | -0.60651 | 10164 ft | 301 kts | 35° |
| 2026-04-25 19:16 | 51.18317 | -0.58719 | 9934 ft | 294 kts | 35° |
| 2026-04-25 19:16 | 51.19981 | -0.56805 | 9454 ft | 295 kts | 35° |
| 2026-04-25 19:17 | 51.21631 | -0.54914 | 9144 ft | 290 kts | 34° |
| 2026-04-25 19:17 | 51.23266 | -0.53041 | 8757 ft | 288 kts | 34° |
| 2026-04-25 19:17 | 51.24887 | -0.51183 | 8382 ft | 286 kts | 35° |
| 2026-04-25 19:17 | 51.26488 | -0.49357 | 8191 ft | 276 kts | 33° |
| 2026-04-25 19:18 | 51.28193 | -0.48248 | 8193 ft | 257 kts | 6° |
| 2026-04-25 19:18 | 51.29907 | -0.48570 | 8218 ft | 258 kts | 336° |
| 2026-04-25 19:18 | 51.31398 | -0.50272 | 8078 ft | 269 kts | 309° |
| 2026-04-25 19:18 | 51.32231 | -0.52922 | 7610 ft | 271 kts | 284° |
| 2026-04-25 19:19 | 51.32599 | -0.55823 | 7424 ft | 261 kts | 281° |
| 2026-04-25 19:19 | 51.32919 | -0.58616 | 7306 ft | 249 kts | 281° |
| 2026-04-25 19:19 | 51.33221 | -0.61304 | 7164 ft | 245 kts | 281° |
| 2026-04-25 19:19 | 51.33321 | -0.62203 | 7058 ft | 245 kts | 281° |
| 2026-04-25 19:20 | 51.33820 | -0.66699 | 6350 ft | 248 kts | 281° |
| 2026-04-25 19:20 | 51.34112 | -0.69345 | 5927 ft | 249 kts | 281° |
| 2026-04-25 19:20 | 51.34408 | -0.72000 | 5509 ft | 251 kts | 281° |
| 2026-04-25 19:20 | 51.34721 | -0.74763 | 5080 ft | 252 kts | 282° |
| 2026-04-25 19:21 | 51.35317 | -0.77375 | 4640 ft | 251 kts | 306° |
| 2026-04-25 19:21 | 51.38272 | -0.79753 | 3837 ft | 245 kts | 358° |
| 2026-04-25 19:21 | 51.39972 | -0.79801 | 3487 ft | 243 kts | 1° |
| 2026-04-25 19:22 | 51.41658 | -0.79787 | 3130 ft | 241 kts | 1° |
| 2026-04-25 19:22 | 51.43305 | -0.79765 | 2974 ft | 229 kts | 1° |
| 2026-04-25 19:22 | 51.46155 | -0.79008 | 2976 ft | 195 kts | 40° |
| 2026-04-25 19:23 | 51.47029 | -0.77405 | 3011 ft | 189 kts | 59° |
| 2026-04-25 19:23 | 51.47619 | -0.73399 | 2988 ft | 187 kts | 89° |
| 2026-04-25 19:23 | 51.47632 | -0.71313 | 2846 ft | 186 kts | 89° |
| 2026-04-25 19:24 | 51.47640 | -0.69945 | 2707 ft | 186 kts | 89° |
| 2026-04-25 19:24 | 51.47653 | -0.67894 | 2466 ft | 181 kts | 89° |
| 2026-04-25 19:24 | 51.47674 | -0.64035 | 2016 ft | 167 kts | 89° |
| 2026-04-25 19:25 | 51.47694 | -0.60340 | 1561 ft | 163 kts | 89° |
| 2026-04-25 19:25 | 51.47703 | -0.58524 | 1351 ft | 163 kts | 89° |
| 2026-04-25 19:25 | 51.47711 | -0.56743 | 1119 ft | 154 kts | 89° |
| 2026-04-25 19:26 | 51.47719 | -0.55128 | 952 ft | 145 kts | 89° |
| 2026-04-25 19:26 | 51.47726 | -0.53510 | 747 ft | 142 kts | 89° |
| 2026-04-25 19:26 | 51.47732 | -0.51931 | 555 ft | 140 kts | 89° |
| 2026-04-25 19:26 | 51.47737 | -0.50381 | 367 ft | 139 kts | 89° |
| 2026-04-25 19:27 | 51.47750 | -0.48831 | 161 ft | 138 kts | 88° |
| 2026-04-25 19:27 | 51.47754 | -0.47837 | 85 ft | 126 kts | 90° |
| 2026-04-25 19:27 | 51.47756 | -0.46780 | 95 ft | 28 kts | 90° |
| 2026-04-25 19:27 | 51.47757 | -0.46444 | 91 ft | 33 kts | 91° |
| 2026-04-25 19:28 | 51.47742 | -0.46214 | 88 ft | 8 kts | 118° |
| 2026-04-25 19:28 | 51.47655 | -0.46094 | 89 ft | 23 kts | 148° |
| 2026-04-25 19:28 | 51.47546 | -0.46090 | 85 ft | 13 kts | 199° |
| 2026-04-25 19:28 | 51.47531 | -0.46103 | 87 ft | 0 kts | 213° |
| 2026-04-25 19:29 | 51.47527 | -0.46108 | 87 ft | 5 kts | 219° |
| 2026-04-25 19:29 | 51.47518 | -0.46254 | 85 ft | 16 kts | 272° |
| 2026-04-25 19:30 | 51.47517 | -0.46431 | 85 ft | 16 kts | 269° |
| 2026-04-25 19:30 | 51.47515 | -0.46603 | 85 ft | 15 kts | 269° |
| 2026-04-25 19:30 | 51.47500 | -0.46764 | 86 ft | 14 kts | 252° |
| 2026-04-25 19:30 | 51.47494 | -0.46906 | 85 ft | 12 kts | 269° |
| 2026-04-25 19:31 | 51.47493 | -0.47030 | 85 ft | 10 kts | 270° |
| 2026-04-25 19:31 | 51.47493 | -0.47140 | 85 ft | 9 kts | 270° |
| 2026-04-25 19:31 | 51.47493 | -0.47248 | 85 ft | 10 kts | 270° |
| 2026-04-25 19:31 | 51.47493 | -0.47384 | 85 ft | 13 kts | 270° |
| 2026-04-25 19:32 | 51.47492 | -0.47516 | 85 ft | 11 kts | 269° |
| 2026-04-25 19:32 | 51.47491 | -0.47631 | 85 ft | 10 kts | 269° |
| 2026-04-25 19:32 | 51.47491 | -0.47735 | 85 ft | 9 kts | 270° |
| 2026-04-25 19:32 | 51.47491 | -0.47796 | 85 ft | 8 kts | 269° |
| 2026-04-25 19:33 | 51.47490 | -0.47942 | 85 ft | 10 kts | 269° |
| 2026-04-25 19:33 | 51.47490 | -0.48052 | 85 ft | 9 kts | 270° |
| 2026-04-25 19:33 | 51.47490 | -0.48153 | 85 ft | 9 kts | 270° |
| 2026-04-25 19:33 | 51.47490 | -0.48259 | 85 ft | 9 kts | 270° |
| 2026-04-25 19:34 | 51.47490 | -0.48405 | 85 ft | 21 kts | 269° |
| 2026-04-25 19:34 | 51.47487 | -0.48643 | 88 ft | 17 kts | 269° |
| 2026-04-25 19:34 | 51.47485 | -0.48823 | 86 ft | 15 kts | 268° |
| 2026-04-25 19:34 | 51.47449 | -0.48886 | 86 ft | 4 kts | 175° |
| 2026-04-25 19:35 | 51.47422 | -0.48892 | 87 ft | 4 kts | 187° |
| 2026-04-25 19:35 | 51.47411 | -0.48893 | 86 ft | 0 kts | 182° |